KLM24F LFBO-EHAM
Flight info
| Callsign | KLM24F |
|---|---|
| Flight time | N/A |
| Altitude | 36000 |
| Route | FISTO DCT PERIG DCT ADABI DCT BOKNO UN858 VANAD UN874 ARSAF DCT EGOZE DCT CMB DCT VEKIN DCT ADUTO N873 FERDI/N0387F240 Y18 DENUT |
| Aircraft | B737/M-SDE2E3FGHIRWXY/LB1 |
Departure
| Time | N/A |
|---|---|
| Airport | Toulouse-Blagnac Airport (LFBO) |
Arrival
| Time | 2026-05-06 19:33 |
|---|---|
| Airport | Amsterdam Airport Schiphol (EHAM) |
| Time | Latitude | Longitude | Altitude | Speed | Heading |
|---|---|---|---|---|---|
| 2026-05-06 18:40 | 48.31635 | 1.15062 | 35956 ft | 442 kts | 17° |
| 2026-05-06 18:41 | 48.34506 | 1.16527 | 35959 ft | 442 kts | 17° |
| 2026-05-06 18:41 | 48.40329 | 1.19506 | 35958 ft | 441 kts | 17° |
| 2026-05-06 18:42 | 48.46144 | 1.22490 | 35957 ft | 441 kts | 18° |
| 2026-05-06 18:42 | 48.51953 | 1.25477 | 35956 ft | 441 kts | 18° |
| 2026-05-06 18:43 | 48.57757 | 1.28453 | 35958 ft | 440 kts | 17° |
| 2026-05-06 18:43 | 48.63542 | 1.31361 | 35959 ft | 440 kts | 17° |
| 2026-05-06 18:44 | 48.69366 | 1.34287 | 35966 ft | 441 kts | 17° |
| 2026-05-06 18:44 | 48.75197 | 1.37238 | 35956 ft | 442 kts | 17° |
| 2026-05-06 18:45 | 48.81031 | 1.40200 | 35965 ft | 442 kts | 17° |
| 2026-05-06 18:45 | 48.86865 | 1.43169 | 35967 ft | 442 kts | 17° |
| 2026-05-06 18:46 | 48.92659 | 1.46123 | 35967 ft | 442 kts | 17° |
| 2026-05-06 18:46 | 48.98131 | 1.50374 | 35974 ft | 444 kts | 35° |
| 2026-05-06 18:47 | 49.02575 | 1.56931 | 35975 ft | 446 kts | 47° |
| 2026-05-06 18:47 | 49.06652 | 1.64071 | 35969 ft | 446 kts | 48° |
| 2026-05-06 18:48 | 49.10740 | 1.71210 | 35965 ft | 447 kts | 47° |
| 2026-05-06 18:48 | 49.14831 | 1.78274 | 35962 ft | 447 kts | 47° |
| 2026-05-06 18:49 | 49.18956 | 1.85382 | 35954 ft | 447 kts | 47° |
| 2026-05-06 18:49 | 49.23077 | 1.92500 | 35963 ft | 447 kts | 47° |
| 2026-05-06 18:50 | 49.27195 | 1.99639 | 35962 ft | 448 kts | 47° |
| 2026-05-06 18:50 | 49.31315 | 2.06800 | 35966 ft | 448 kts | 47° |
| 2026-05-06 18:51 | 49.35437 | 2.13983 | 35962 ft | 449 kts | 47° |
| 2026-05-06 18:51 | 49.38862 | 2.19968 | 35969 ft | 449 kts | 47° |
| 2026-05-06 18:52 | 49.43650 | 2.28363 | 35959 ft | 449 kts | 48° |
| 2026-05-06 18:52 | 49.47101 | 2.34428 | 35962 ft | 450 kts | 48° |
| 2026-05-06 18:53 | 49.51193 | 2.41636 | 35965 ft | 450 kts | 48° |
| 2026-05-06 18:53 | 49.55418 | 2.48733 | 35948 ft | 449 kts | 40° |
| 2026-05-06 18:54 | 49.60534 | 2.54205 | 35952 ft | 448 kts | 31° |
| 2026-05-06 18:54 | 49.65848 | 2.59221 | 35945 ft | 448 kts | 30° |
| 2026-05-06 18:55 | 49.71156 | 2.64288 | 35944 ft | 448 kts | 31° |
| 2026-05-06 18:55 | 49.76434 | 2.69410 | 35937 ft | 448 kts | 31° |
| 2026-05-06 18:56 | 49.81702 | 2.74561 | 35937 ft | 448 kts | 32° |
| 2026-05-06 18:56 | 49.86966 | 2.79723 | 35936 ft | 448 kts | 31° |
| 2026-05-06 18:57 | 49.92201 | 2.84863 | 35939 ft | 448 kts | 31° |
| 2026-05-06 18:57 | 49.97460 | 2.90044 | 35939 ft | 448 kts | 31° |
| 2026-05-06 18:58 | 50.02722 | 2.95242 | 35929 ft | 448 kts | 31° |
| 2026-05-06 18:58 | 50.07982 | 3.00450 | 35931 ft | 448 kts | 31° |
| 2026-05-06 18:59 | 50.13241 | 3.05671 | 35931 ft | 448 kts | 32° |
| 2026-05-06 18:59 | 50.18500 | 3.10906 | 35934 ft | 448 kts | 32° |
| 2026-05-06 19:00 | 50.23802 | 3.16032 | 35936 ft | 448 kts | 26° |
| 2026-05-06 19:00 | 50.26626 | 3.18095 | 35622 ft | 451 kts | 22° |
| 2026-05-06 19:00 | 50.29513 | 3.20029 | 34991 ft | 451 kts | 22° |
| 2026-05-06 19:00 | 50.32401 | 3.21947 | 34281 ft | 450 kts | 22° |
| 2026-05-06 19:01 | 50.35274 | 3.23901 | 33533 ft | 449 kts | 23° |
| 2026-05-06 19:01 | 50.38101 | 3.25869 | 33277 ft | 437 kts | 23° |
| 2026-05-06 19:01 | 50.40842 | 3.27798 | 32976 ft | 429 kts | 23° |
| 2026-05-06 19:01 | 50.43582 | 3.29732 | 32728 ft | 435 kts | 23° |
| 2026-05-06 19:02 | 50.46364 | 3.31697 | 32463 ft | 442 kts | 23° |
| 2026-05-06 19:02 | 50.49173 | 3.33682 | 32191 ft | 441 kts | 23° |
| 2026-05-06 19:02 | 50.51960 | 3.35652 | 31928 ft | 437 kts | 23° |
| 2026-05-06 19:02 | 50.54692 | 3.37585 | 31673 ft | 434 kts | 23° |
| 2026-05-06 19:03 | 50.57441 | 3.39531 | 31401 ft | 432 kts | 24° |
| 2026-05-06 19:03 | 50.60174 | 3.41467 | 31146 ft | 430 kts | 24° |
| 2026-05-06 19:03 | 50.62896 | 3.43398 | 30879 ft | 429 kts | 24° |
| 2026-05-06 19:03 | 50.65607 | 3.45323 | 30378 ft | 425 kts | 24° |
| 2026-05-06 19:04 | 50.68290 | 3.47232 | 29864 ft | 420 kts | 24° |
| 2026-05-06 19:04 | 50.70940 | 3.49124 | 29263 ft | 415 kts | 24° |
| 2026-05-06 19:04 | 50.73550 | 3.50985 | 28709 ft | 409 kts | 24° |
| 2026-05-06 19:04 | 50.76138 | 3.52830 | 28162 ft | 404 kts | 24° |
| 2026-05-06 19:05 | 50.78658 | 3.54630 | 27625 ft | 400 kts | 23° |
| 2026-05-06 19:05 | 50.81180 | 3.56435 | 27083 ft | 396 kts | 24° |
| 2026-05-06 19:05 | 50.83683 | 3.58228 | 26542 ft | 392 kts | 23° |
| 2026-05-06 19:05 | 50.86159 | 3.60003 | 26000 ft | 389 kts | 23° |
| 2026-05-06 19:06 | 50.88619 | 3.61770 | 25468 ft | 387 kts | 23° |
| 2026-05-06 19:06 | 50.91134 | 3.63216 | 25061 ft | 382 kts | 13° |
| 2026-05-06 19:06 | 50.93738 | 3.63960 | 24963 ft | 384 kts | 3° |
| 2026-05-06 19:06 | 50.96440 | 3.64191 | 24868 ft | 392 kts | 0° |
| 2026-05-06 19:07 | 50.99182 | 3.64331 | 24744 ft | 394 kts | 0° |
| 2026-05-06 19:07 | 51.01915 | 3.64457 | 24615 ft | 391 kts | 0° |
| 2026-05-06 19:07 | 51.04639 | 3.64595 | 24494 ft | 391 kts | 0° |
| 2026-05-06 19:07 | 51.07356 | 3.64751 | 24372 ft | 390 kts | 0° |
| 2026-05-06 19:08 | 51.10066 | 3.64918 | 24256 ft | 390 kts | 0° |
| 2026-05-06 19:08 | 51.12774 | 3.65092 | 24128 ft | 390 kts | 1° |
| 2026-05-06 19:08 | 51.15482 | 3.65269 | 24010 ft | 388 kts | 1° |
| 2026-05-06 19:08 | 51.18178 | 3.65445 | 23892 ft | 387 kts | 0° |
| 2026-05-06 19:09 | 51.20877 | 3.65622 | 23777 ft | 388 kts | 0° |
| 2026-05-06 19:09 | 51.23569 | 3.65796 | 23659 ft | 387 kts | 0° |
| 2026-05-06 19:09 | 51.26221 | 3.65839 | 23548 ft | 386 kts | 358° |
| 2026-05-06 19:09 | 51.28895 | 3.66226 | 23399 ft | 389 kts | 11° |
| 2026-05-06 19:10 | 51.31483 | 3.67519 | 23274 ft | 391 kts | 22° |
| 2026-05-06 19:10 | 51.33950 | 3.69347 | 23146 ft | 390 kts | 24° |
| 2026-05-06 19:10 | 51.36392 | 3.71221 | 23008 ft | 389 kts | 24° |
| 2026-05-06 19:10 | 51.38829 | 3.73100 | 22871 ft | 388 kts | 24° |
| 2026-05-06 19:11 | 51.41265 | 3.74971 | 22723 ft | 387 kts | 24° |
| 2026-05-06 19:11 | 51.43692 | 3.76827 | 22595 ft | 384 kts | 24° |
| 2026-05-06 19:11 | 51.46073 | 3.78641 | 22436 ft | 373 kts | 24° |
| 2026-05-06 19:11 | 51.48374 | 3.80392 | 22280 ft | 359 kts | 24° |
| 2026-05-06 19:12 | 51.50592 | 3.82078 | 22125 ft | 347 kts | 24° |
| 2026-05-06 19:12 | 51.52735 | 3.83707 | 21970 ft | 335 kts | 23° |
| 2026-05-06 19:12 | 51.54811 | 3.85286 | 21829 ft | 325 kts | 23° |
| 2026-05-06 19:12 | 51.56822 | 3.86816 | 21677 ft | 315 kts | 23° |
| 2026-05-06 19:13 | 51.58770 | 3.88299 | 21524 ft | 305 kts | 23° |
| 2026-05-06 19:13 | 51.60659 | 3.89739 | 21383 ft | 296 kts | 23° |
| 2026-05-06 19:13 | 51.62518 | 3.91155 | 21246 ft | 303 kts | 23° |
| 2026-05-06 19:13 | 51.64512 | 3.92670 | 21175 ft | 331 kts | 23° |
| 2026-05-06 19:14 | 51.66622 | 3.94279 | 21032 ft | 336 kts | 24° |
| 2026-05-06 19:14 | 51.68733 | 3.95895 | 20599 ft | 336 kts | 24° |
| 2026-05-06 19:14 | 51.70842 | 3.97512 | 19966 ft | 335 kts | 24° |
| 2026-05-06 19:14 | 51.72954 | 3.99133 | 19336 ft | 336 kts | 24° |
| 2026-05-06 19:15 | 51.75052 | 4.00745 | 18826 ft | 332 kts | 24° |
| 2026-05-06 19:15 | 51.77132 | 4.02345 | 18302 ft | 330 kts | 24° |
| 2026-05-06 19:15 | 51.79193 | 4.03931 | 17730 ft | 326 kts | 24° |
| 2026-05-06 19:15 | 51.81232 | 4.05502 | 17158 ft | 322 kts | 24° |
| 2026-05-06 19:16 | 51.83241 | 4.07050 | 16544 ft | 319 kts | 24° |
| 2026-05-06 19:16 | 51.85233 | 4.08586 | 15949 ft | 316 kts | 24° |
| 2026-05-06 19:16 | 51.87209 | 4.10112 | 15370 ft | 313 kts | 24° |
| 2026-05-06 19:16 | 51.89138 | 4.11603 | 14816 ft | 310 kts | 24° |
| 2026-05-06 19:17 | 51.91074 | 4.13113 | 14267 ft | 307 kts | 26° |
| 2026-05-06 19:17 | 51.92853 | 4.15009 | 13718 ft | 306 kts | 36° |
| 2026-05-06 19:17 | 51.94497 | 4.17174 | 13141 ft | 303 kts | 38° |
| 2026-05-06 19:17 | 51.96092 | 4.19367 | 12550 ft | 298 kts | 38° |
| 2026-05-06 19:18 | 51.97668 | 4.21534 | 11953 ft | 295 kts | 38° |
| 2026-05-06 19:18 | 51.99232 | 4.23661 | 11360 ft | 292 kts | 38° |
| 2026-05-06 19:18 | 52.00786 | 4.25752 | 10765 ft | 289 kts | 38° |
| 2026-05-06 19:18 | 52.02323 | 4.27813 | 10212 ft | 284 kts | 38° |
| 2026-05-06 19:19 | 52.03852 | 4.29856 | 9505 ft | 285 kts | 38° |
| 2026-05-06 19:19 | 52.05391 | 4.31907 | 8699 ft | 287 kts | 38° |
| 2026-05-06 19:19 | 52.06934 | 4.33964 | 7937 ft | 286 kts | 38° |
| 2026-05-06 19:19 | 52.08472 | 4.36011 | 7182 ft | 286 kts | 39° |
| 2026-05-06 19:20 | 52.10007 | 4.38056 | 6445 ft | 285 kts | 39° |
| 2026-05-06 19:20 | 52.11510 | 4.40060 | 5671 ft | 283 kts | 39° |
| 2026-05-06 19:20 | 52.13021 | 4.42075 | 4908 ft | 281 kts | 39° |
| 2026-05-06 19:20 | 52.14517 | 4.44074 | 4134 ft | 279 kts | 39° |
| 2026-05-06 19:21 | 52.15993 | 4.46045 | 3359 ft | 276 kts | 39° |
| 2026-05-06 19:21 | 52.17472 | 4.48023 | 2596 ft | 274 kts | 39° |
| 2026-05-06 19:21 | 52.18907 | 4.49942 | 2269 ft | 257 kts | 40° |
| 2026-05-06 19:21 | 52.20260 | 4.51646 | 2105 ft | 237 kts | 30° |
| 2026-05-06 19:22 | 52.21792 | 4.52232 | 2014 ft | 223 kts | 358° |
| 2026-05-06 19:22 | 52.23207 | 4.51420 | 2003 ft | 211 kts | 335° |
| 2026-05-06 19:22 | 52.24422 | 4.50205 | 1994 ft | 200 kts | 333° |
| 2026-05-06 19:22 | 52.25602 | 4.48970 | 2006 ft | 202 kts | 332° |
| 2026-05-06 19:23 | 52.26766 | 4.47749 | 2026 ft | 199 kts | 332° |
| 2026-05-06 19:23 | 52.27936 | 4.46520 | 2013 ft | 195 kts | 332° |
| 2026-05-06 19:23 | 52.29067 | 4.45326 | 2016 ft | 197 kts | 332° |
| 2026-05-06 19:23 | 52.30230 | 4.44103 | 2015 ft | 200 kts | 332° |
| 2026-05-06 19:24 | 52.31294 | 4.42609 | 1993 ft | 208 kts | 307° |
| 2026-05-06 19:24 | 52.31685 | 4.40325 | 2014 ft | 217 kts | 270° |
| 2026-05-06 19:24 | 52.31214 | 4.37976 | 2023 ft | 222 kts | 240° |
| 2026-05-06 19:24 | 52.30385 | 4.35833 | 2009 ft | 224 kts | 238° |
| 2026-05-06 19:25 | 52.29528 | 4.33711 | 2012 ft | 225 kts | 237° |
| 2026-05-06 19:25 | 52.28661 | 4.31575 | 2012 ft | 226 kts | 237° |
| 2026-05-06 19:25 | 52.27791 | 4.29436 | 2008 ft | 225 kts | 237° |
| 2026-05-06 19:25 | 52.26683 | 4.27692 | 2002 ft | 222 kts | 204° |
| 2026-05-06 19:26 | 52.25223 | 4.27248 | 2024 ft | 212 kts | 167° |
| 2026-05-06 19:26 | 52.23895 | 4.28113 | 2027 ft | 204 kts | 144° |
| 2026-05-06 19:26 | 52.22771 | 4.29444 | 1998 ft | 199 kts | 123° |
| 2026-05-06 19:26 | 52.22265 | 4.31437 | 2031 ft | 188 kts | 95° |
| 2026-05-06 19:27 | 52.22099 | 4.33559 | 2021 ft | 189 kts | 92° |
| 2026-05-06 19:27 | 52.21961 | 4.35703 | 2006 ft | 190 kts | 92° |
| 2026-05-06 19:27 | 52.21823 | 4.37855 | 1995 ft | 191 kts | 92° |
| 2026-05-06 19:27 | 52.21679 | 4.40008 | 2005 ft | 190 kts | 92° |
| 2026-05-06 19:28 | 52.21533 | 4.42158 | 2016 ft | 191 kts | 92° |
| 2026-05-06 19:28 | 52.21385 | 4.44314 | 2001 ft | 191 kts | 92° |
| 2026-05-06 19:28 | 52.21237 | 4.46374 | 1988 ft | 174 kts | 92° |
| 2026-05-06 19:28 | 52.21094 | 4.48284 | 1989 ft | 167 kts | 92° |
| 2026-05-06 19:29 | 52.20951 | 4.50167 | 2007 ft | 168 kts | 92° |
| 2026-05-06 19:29 | 52.20808 | 4.52081 | 2017 ft | 171 kts | 92° |
| 2026-05-06 19:29 | 52.20660 | 4.54014 | 2008 ft | 172 kts | 92° |
| 2026-05-06 19:29 | 52.20729 | 4.55914 | 1990 ft | 166 kts | 63° |
| 2026-05-06 19:30 | 52.21430 | 4.57370 | 2000 ft | 164 kts | 44° |
| 2026-05-06 19:30 | 52.22234 | 4.58678 | 2008 ft | 163 kts | 44° |
| 2026-05-06 19:30 | 52.23042 | 4.59979 | 2018 ft | 164 kts | 44° |
| 2026-05-06 19:30 | 52.23862 | 4.61280 | 2004 ft | 166 kts | 44° |
| 2026-05-06 19:31 | 52.24647 | 4.62665 | 1995 ft | 167 kts | 53° |
| 2026-05-06 19:31 | 52.25262 | 4.64182 | 1893 ft | 157 kts | 57° |
| 2026-05-06 19:31 | 52.26429 | 4.67299 | 1041 ft | 158 kts | 56° |
| 2026-05-06 19:32 | 52.27035 | 4.68765 | 680 ft | 154 kts | 54° |
| 2026-05-06 19:32 | 52.27570 | 4.70186 | 521 ft | 140 kts | 57° |
| 2026-05-06 19:32 | 52.28016 | 4.71488 | 366 ft | 121 kts | 53° |
| 2026-05-06 19:32 | 52.28473 | 4.72608 | 196 ft | 115 kts | 53° |
| 2026-05-06 19:33 | 52.28894 | 4.73689 | 39 ft | 113 kts | 52° |
| 2026-05-06 19:33 | 52.29295 | 4.74711 | -1 ft | 92 kts | 58° |
| 2026-05-06 19:33 | 52.29553 | 4.75392 | -3 ft | 48 kts | 58° |
| 2026-05-06 19:33 | 52.29685 | 4.75704 | -3 ft | 29 kts | 44° |
| 2026-05-06 19:34 | 52.29840 | 4.75852 | -3 ft | 20 kts | 27° |
| 2026-05-06 19:34 | 52.29940 | 4.75937 | -2 ft | 15 kts | 27° |
| 2026-05-06 19:34 | 52.30004 | 4.76021 | -2 ft | 11 kts | 56° |
| 2026-05-06 19:34 | 52.30042 | 4.76122 | -2 ft | 9 kts | 58° |
| 2026-05-06 19:35 | 52.30074 | 4.76205 | -2 ft | 9 kts | 58° |
| 2026-05-06 19:35 | 52.30108 | 4.76293 | -2 ft | 10 kts | 58° |
| 2026-05-06 19:35 | 52.30153 | 4.76410 | -2 ft | 13 kts | 57° |
| 2026-05-06 19:35 | 52.30206 | 4.76545 | -2 ft | 15 kts | 58° |
| 2026-05-06 19:36 | 52.30268 | 4.76706 | -2 ft | 18 kts | 58° |
| 2026-05-06 19:36 | 52.30310 | 4.76817 | -2 ft | 17 kts | 57° |
| 2026-05-06 19:36 | 52.30370 | 4.76970 | -2 ft | 13 kts | 57° |
| 2026-05-06 19:36 | 52.30418 | 4.77044 | -2 ft | 9 kts | 10° |
| 2026-05-06 19:37 | 52.30494 | 4.76983 | -2 ft | 10 kts | 327° |
| 2026-05-06 19:37 | 52.30553 | 4.76922 | -2 ft | 10 kts | 328° |
| 2026-05-06 19:37 | 52.30590 | 4.76877 | -2 ft | 10 kts | 313° |
| 2026-05-06 19:37 | 52.30622 | 4.76794 | -2 ft | 6 kts | 299° |
| 2026-05-06 19:38 | 52.30617 | 4.76739 | -2 ft | 5 kts | 224° |
| 2026-05-06 19:38 | 52.30585 | 4.76707 | -2 ft | 5 kts | 214° |
| 2026-05-06 19:38 | 52.30573 | 4.76694 | -2 ft | 0 kts | 214° |